Latest Weather Observations for Wilcannia Airport

IDN60801

Issued at 7:33 am EST Sunday 26 April 2015 (issued every 30 minutes, with the page automatically refreshed every 10 minutes)

About weather observations | Map of weather stations | Latest weather observations for NSW | Other Formats
Station Details ID: 046012 Name: WILCANNIA AERODROME AWS Lat: -31.52 Lon: 143.38 Height: 94.3 m
Data from the previous 72 hours. | See also: Recent months for locations in New South Wales
Date/Time
EST
Temp
°C
App
Temp
°C
Dew
Point
Rel
Hum
%
Delta-T
°C
Wind Press
QNH
hPa
Press
MSL
hPa
Rain
since 9 am
mm
Dir
 
Spd
km/h
Gust
km/h
Spd
kts
Gust
kts
26/07:30am 11.6 7.3 9.5 87 1.1 SSW 22 30 12 16 1019.9 1019.7 1.0
26/07:00am 10.8 6.9 9.4 91 0.7 SSW 20 28 11 15 1019.5 1019.3 1.0
26/06:30am 10.0 6.0 8.9 93 0.5 SW 20 28 11 15 1019.0 1018.8 1.0
26/06:00am 9.6 5.7 8.7 94 0.4 SW 19 24 10 13 1018.6 1018.4 1.0
26/05:30am 9.4 6.1 8.2 92 0.6 WSW 15 20 8 11 1018.3 1018.1 1.0
26/05:00am 9.6 6.3 8.0 90 0.8 WSW 15 19 8 10 1017.8 1017.5 1.0
26/04:30am 10.4 6.8 8.3 87 1.0 WSW 17 22 9 12 1017.5 1017.2 1.0
26/04:00am 10.0 6.7 8.1 88 0.9 WSW 15 20 8 11 1017.3 1017.0 1.0
26/03:30am 8.9 5.2 6.5 85 1.1 WSW 15 17 8 9 1017.0 1016.7 1.0
26/03:00am 9.3 5.2 6.0 80 1.5 W 17 22 9 12 1016.9 1016.6 1.0
26/02:30am 8.9 4.6 5.3 78 1.6 W 17 20 9 11 1016.8 1016.5 1.0
26/02:00am 8.9 4.9 5.1 77 1.7 W 15 17 8 9 1016.7 1016.4 1.0
26/01:30am 9.0 4.9 4.6 74 2.0 W 15 19 8 10 1016.6 1016.3 1.0
26/01:00am 9.4 5.0 5.0 74 2.0 W 17 20 9 11 1016.6 1016.3 1.0
26/12:30am 9.8 5.4 5.0 72 2.2 W 17 20 9 11 1016.4 1016.1 1.0
26/12:00am 9.5 5.5 4.9 73 2.1 WNW 15 17 8 9 1016.3 1016.0 1.0
 
Date/Time
EST
Temp
°C
App
Temp
°C
Dew
Point
Rel
Hum
%
Delta-T
°C
Wind Press
QNH
hPa
Press
MSL
hPa
Rain
since 9 am
mm
Dir
 
Spd
km/h
Gust
km/h
Spd
kts
Gust
kts
25/11:30pm 9.1 5.2 5.3 77 1.7 WNW 15 17 8 9 1016.4 1016.1 1.0
25/11:00pm 8.9 5.4 5.3 78 1.6 W 13 15 7 8 1016.3 1016.0 1.0
25/10:30pm 8.9 5.4 5.3 78 1.6 WNW 13 17 7 9 1016.2 1015.9 1.0
25/10:00pm 9.2 5.7 5.4 77 1.7 WNW 13 15 7 8 1016.1 1015.8 1.0
25/09:30pm 9.3 5.9 5.9 79 1.6 W 13 15 7 8 1016.0 1015.7 1.0
25/09:00pm 9.7 6.3 5.9 77 1.8 W 13 17 7 9 1015.8 1015.5 1.0
25/08:30pm 9.9 6.5 5.7 75 1.9 WSW 13 17 7 9 1015.5 1015.2 1.0
25/08:00pm 10.6 7.2 5.8 72 2.2 WSW 13 17 7 9 1015.2 1014.9 1.0
25/07:30pm 11.5 6.9 5.6 67 2.7 SW 19 24 10 13 1014.9 1014.6 1.0
25/07:00pm 11.8 7.2 6.5 70 2.5 SW 20 24 11 13 1014.3 1014.0 1.0
25/06:30pm 12.3 7.0 7.0 70 2.6 SW 24 35 13 19 1013.6 1013.3 1.0
25/06:05pm 12.5 5.7 7.0 69 2.7 SW 32 50 17 27 1013.0 1012.7 1.0
25/06:00pm 12.7 5.0 7.0 68 2.8 SW 37 52 20 28 1013.0 1012.7 1.0
25/05:30pm 12.9 5.8 8.2 73 2.3 WSW 35 46 19 25 1012.2 1012.0 1.0
25/05:13pm 13.9 7.1 6.7 62 3.5 WSW 32 54 17 29 1011.7 1011.5 1.0
25/05:00pm 14.0 6.9 6.6 61 3.6 WSW 33 48 18 26 1011.3 1011.1 1.0
25/04:30pm 14.2 6.8 6.6 60 3.7 WSW 35 46 19 25 1010.8 1010.6 1.0
25/04:00pm 14.5 7.6 7.1 61 3.6 WSW 33 46 18 25 1010.3 1010.1 1.0
25/03:30pm 12.6 5.9 8.1 74 2.2 WSW 33 48 18 26 1010.0 1009.8 1.0
25/03:00pm 14.4 9.8 9.8 74 2.4 WSW 24 37 13 20 1009.5 1009.3 1.0
25/02:30pm 14.5 8.3 9.9 74 2.4 WSW 33 48 18 26 1009.1 1008.9 1.0
25/02:00pm 15.0 6.0 7.3 60 3.8 W 44 74 24 40 1008.7 1008.4 0.8
25/01:59pm 15.9 7.3 8.2 60 3.9 W 43 74 23 40 1008.4 1008.1 0.8
25/01:44pm 15.7 8.3 8.4 62 3.7 W 37 56 20 30 1008.2 1007.9 0.8
25/01:30pm 15.1 8.8 9.0 67 3.1 WNW 32 41 17 22 1008.2 1007.9 0.8
25/01:00pm 13.2 7.3 10.6 84 1.4 WSW 32 44 17 24 1008.6 1008.3 0.6
25/12:44pm 13.4 5.9 9.6 78 2.0 W 39 65 21 35 1008.4 1008.1 0.2
25/12:42pm 13.4 5.0 9.1 75 2.2 W 43 65 23 35 1008.4 1008.1 0.2
25/12:35pm 16.5 8.6 6.1 50 5.1 WNW 37 59 20 32 1008.3 1008.0 0.0
25/12:30pm 16.0 8.1 7.7 58 4.2 WNW 39 50 21 27 1008.4 1008.1 0.0
25/12:00pm 19.0 10.7 4.4 38 7.0 WNW 37 52 20 28 1008.7 1008.4 0.0
25/11:34am 17.6 9.7 4.2 41 6.3 WNW 35 56 19 30 1009.0 1008.8 0.0
25/11:30am 17.5 9.7 4.8 43 6.1 WNW 35 50 19 27 1009.1 1008.9 0.0
25/11:08am 17.8 9.7 5.1 43 6.1 WNW 37 56 20 30 1009.3 1009.1 0.0
25/11:00am 17.4 9.1 4.4 42 6.2 WNW 37 50 20 27 1009.3 1009.1 0.0
25/10:30am 16.8 8.6 4.8 45 5.7 WNW 37 54 20 29 1009.4 1009.2 0.0
25/10:24am 17.3 9.6 5.3 45 5.8 WNW 35 54 19 29 1009.4 1009.2 0.0
25/10:00am 16.0 8.2 4.7 47 5.4 WNW 35 50 19 27 1009.5 1009.3 0.0
25/09:57am 16.3 8.5 4.7 46 5.5 WNW 35 54 19 29 1009.5 1009.3 0.0
25/09:30am 16.2 9.0 4.9 47 5.4 NW 32 48 17 26 1009.7 1009.5 0.0
25/09:00am 14.9 8.4 4.6 50 4.8 NW 28 37 15 20 1009.8 1009.6 0.0
25/08:30am 13.5 7.9 5.2 57 3.9 NW 24 32 13 17 1009.7 1009.5 0.0
25/08:00am 13.3 8.4 5.2 58 3.8 NNW 20 28 11 15 1009.6 1009.4 0.0
25/07:30am 10.9 7.1 5.7 70 2.4 NNW 15 19 8 10 1009.4 1009.2 0.0
25/07:00am 9.4 6.0 5.8 78 1.7 N 13 15 7 8 1009.1 1008.9 0.0
25/06:30am 9.1 5.9 5.3 77 1.7 NNW 11 13 6 7 1009.2 1009.0 0.0
25/06:00am 10.3 6.9 5.9 74 2.0 NW 13 17 7 9 1009.2 1009.0 0.0
25/05:30am 11.0 7.4 6.9 76 2.0 NW 15 17 8 9 1009.2 1009.0 0.0
25/05:00am 10.8 7.4 7.7 81 1.5 NW 15 17 8 9 1009.2 1009.0 0.0
25/04:30am 10.3 7.5 7.0 80 1.6 NW 11 13 6 7 1009.1 1008.9 0.0
25/04:00am 11.0 8.9 6.7 75 2.0 W 7 9 4 5 1009.1 1008.9 0.0
25/03:30am 12.5 10.1 7.0 69 2.7 W 9 9 5 5 1009.3 1009.1 0.0
25/03:00am 13.9 11.4 8.1 68 2.9 WSW 11 17 6 9 1009.5 1009.3 0.0
25/02:30am 14.0 11.5 8.4 69 2.8 WSW 11 15 6 8 1009.7 1009.5 0.0
25/02:00am 14.2 11.1 8.8 70 2.7 WSW 15 19 8 10 1009.8 1009.6 0.0
25/01:30am 14.1 11.8 8.9 71 2.6 SW 11 15 6 8 1010.0 1009.8 0.0
25/01:00am 14.1 12.1 8.7 70 2.7 WSW 9 13 5 7 1009.9 1009.7 0.0
25/12:30am 14.7 11.2 8.9 68 3.0 SW 17 22 9 12 1009.8 1009.6 0.0
25/12:00am 15.7 11.3 8.9 64 3.5 SW 22 35 12 19 1009.8 1009.6 0.0
 
Date/Time
EST
Temp
°C
App
Temp
°C
Dew
Point
Rel
Hum
%
Delta-T
°C
Wind Press
QNH
hPa
Press
MSL
hPa
Rain
since 9 am
mm
Dir
 
Spd
km/h
Gust
km/h
Spd
kts
Gust
kts
24/11:30pm 16.1 12.1 9.1 63 3.6 WSW 20 30 11 16 1009.7 1009.5 0.0
24/11:00pm 16.6 11.7 8.6 59 4.1 WSW 24 32 13 17 1009.7 1009.5 0.0
24/10:30pm 18.0 13.0 8.0 52 5.1 WSW 24 41 13 22 1009.4 1009.2 0.0
24/10:27pm 18.1 13.8 7.8 51 5.3 W 20 41 11 22 1009.3 1009.1 0.0
24/10:00pm 17.7 14.7 7.7 52 5.1 W 13 17 7 9 1009.1 1008.9 0.0
24/09:30pm 17.2 13.7 7.3 52 5.0 W 15 19 8 10 1009.0 1008.8 0.0
24/09:00pm 17.3 14.1 6.8 50 5.2 W 13 15 7 8 1008.9 1008.7 0.0
24/08:30pm 17.6 14.3 6.5 48 5.5 W 13 15 7 8 1008.7 1008.4 0.0
24/08:00pm 17.3 14.2 5.6 46 5.7 WNW 11 13 6 7 1008.5 1008.2 0.0
24/07:30pm 18.3 15.1 5.2 42 6.4 WNW 11 13 6 7 1008.1 1007.8 0.0
24/07:00pm 19.7 16.2 5.4 39 7.1 WNW 13 17 7 9 1007.8 1007.5 0.0
24/06:30pm 21.1 17.4 4.6 34 8.1 WNW 13 17 7 9 1007.6 1007.3 0.0
24/06:00pm 22.4 17.5 4.9 32 8.7 NW 20 30 11 16 1007.3 1007.0 0.0
24/05:30pm 23.3 18.0 4.8 30 9.2 WNW 22 32 12 17 1007.2 1006.9 0.0
24/05:00pm 24.4 17.9 4.7 28 9.9 WNW 28 37 15 20 1007.1 1006.8 0.0
24/04:30pm 25.3 20.0 5.0 27 10.3 NW 22 35 12 19 1006.9 1006.6 0.0
24/04:00pm 25.5 19.8 5.1 27 10.4 NW 24 35 13 19 1007.0 1006.7 0.0
24/03:30pm 25.6 19.6 5.2 27 10.4 WNW 26 33 14 18 1007.0 1006.7 0.0
24/03:00pm 25.1 19.4 4.8 27 10.3 WNW 24 37 13 20 1007.3 1007.0 0.0
24/02:30pm 25.4 19.8 5.6 28 10.2 NW 24 35 13 19 1007.5 1007.2 0.0
24/02:00pm 25.3 20.1 5.5 28 10.2 NW 22 35 12 19 1007.6 1007.3 0.0
24/01:30pm 24.6 18.6 5.4 29 9.8 WNW 26 39 14 21 1008.0 1007.7 0.0
24/01:00pm 24.3 18.7 5.6 30 9.6 WNW 24 33 13 18 1008.5 1008.2 0.0
24/12:30pm 24.4 19.3 6.2 31 9.4 NW 22 32 12 17 1009.1 1008.9 0.0
24/12:00pm 24.0 19.4 6.3 32 9.1 NW 20 32 11 17 1009.7 1009.5 0.0
24/11:30am 23.2 18.8 7.3 36 8.3 WNW 20 28 11 15 1010.2 1010.0 0.0
24/11:00am 22.3 18.0 7.7 39 7.7 NW 20 32 11 17 1010.6 1010.4 0.0
24/10:30am 21.7 18.2 8.6 43 6.9 NW 17 26 9 14 1010.8 1010.6 0.0
24/10:00am 20.3 18.3 10.1 52 5.5 NNW 11 19 6 10 1011.0 1010.8 0.0
24/09:30am 19.0 17.0 10.3 57 4.7 NNW 11 17 6 9 1011.2 1011.0 0.0
24/09:00am 16.9 15.6 10.1 64 3.6 NW 7 9 4 5 1011.5 1011.3 0.0
24/08:30am 16.0 15.1 10.5 70 2.9 NW 6 9 3 5 1011.0 1010.8 0.0
24/08:00am 13.8 12.6 10.4 80 1.8 NW 7 9 4 5 1011.2 1011.0 0.0
24/07:30am 12.6 11.0 10.1 85 1.3 NNW 9 11 5 6 1010.9 1010.7 0.0
24/07:00am 11.9 10.1 9.6 86 1.2 NW 9 11 5 6 1010.7 1010.5 0.0
24/06:30am 11.9 10.1 9.6 86 1.2 WNW 9 11 5 6 1010.4 1010.2 0.0
24/06:00am 11.7 9.9 9.6 87 1.1 W 9 11 5 6 1010.3 1010.1 0.0
24/05:30am 11.1 9.2 9.0 87 1.0 W 9 11 5 6 1010.1 1009.9 0.0
24/05:00am 11.4 9.6 9.3 87 1.1 WNW 9 11 5 6 1009.9 1009.7 0.0
24/04:30am 10.9 9.0 9.2 89 0.9 WNW 9 11 5 6 1010.1 1009.9 0.0
24/04:00am 10.4 8.2 7.8 84 1.3 WNW 9 9 5 5 1010.2 1010.0 0.0
24/03:30am 11.1 9.1 8.8 86 1.1 WNW 9 11 5 6 1010.5 1010.3 0.0
24/03:00am 11.4 9.0 8.8 84 1.3 WNW 11 11 6 6 1010.6 1010.4 0.0
24/02:30am 11.9 9.6 9.1 83 1.4 WNW 11 13 6 7 1010.9 1010.7 0.0
24/02:00am 12.3 10.4 9.1 81 1.6 WNW 9 11 5 6 1011.1 1010.9 0.0
24/01:30am 12.8 10.9 9.1 78 1.9 W 9 11 5 6 1011.2 1011.0 0.0
24/01:00am 13.4 11.9 9.3 76 2.1 W 7 9 4 5 1011.4 1011.2 0.0
24/12:30am 14.0 12.6 9.4 74 2.4 W 7 9 4 5 1011.6 1011.4 0.0
24/12:00am 14.3 12.4 9.1 71 2.7 W 9 9 5 5 1011.8 1011.6 0.0
 
Date/Time
EST
Temp
°C
App
Temp
°C
Dew
Point
Rel
Hum
%
Delta-T
°C
Wind Press
QNH
hPa
Press
MSL
hPa
Rain
since 9 am
mm
Dir
 
Spd
km/h
Gust
km/h
Spd
kts
Gust
kts
23/11:30pm 14.6 13.1 9.2 70 2.8 SW 7 7 4 4 1012.0 1011.8 0.0
23/11:00pm 15.4 14.1 9.1 66 3.2 SW 6 7 3 4 1012.1 1011.9 0.0
23/10:30pm 16.2 14.8 9.4 64 3.5 SW 7 9 4 5 1012.5 1012.3 0.0
23/10:00pm 16.6 15.1 9.3 62 3.8 SW 7 9 4 5 1012.7 1012.5 0.0
23/09:30pm 17.4 15.6 9.3 59 4.2 SW 9 9 5 5 1013.0 1012.7 0.0
23/09:00pm 17.8 15.6 9.4 58 4.4 SW 11 15 6 8 1013.1 1012.8 0.0
23/08:30pm 17.8 15.9 9.2 57 4.5 SW 9 11 5 6 1012.9 1012.6 0.0
23/08:00pm 18.3 16.4 9.1 55 4.8 SW 9 11 5 6 1012.7 1012.5 0.0
23/07:30pm 18.5 16.1 8.7 53 5.1 SW 11 13 6 7 1012.7 1012.5 0.0
23/07:00pm 18.6 16.2 8.6 52 5.2 SW 11 13 6 7 1012.9 1012.6 0.0
23/06:30pm 19.1 16.6 8.4 50 5.6 SW 11 13 6 7 1012.4 1012.2 0.0
23/06:00pm 20.1 17.3 8.4 47 6.1 SW 13 19 7 10 1012.3 1012.1 0.0
23/05:30pm 21.6 18.2 7.8 41 7.2 WSW 15 20 8 11 1012.2 1012.0 0.0
23/05:00pm 21.7 18.7 7.5 40 7.4 WSW 13 19 7 10 1012.1 1011.9 0.0
23/04:30pm 22.9 19.6 6.6 35 8.4 WSW 13 19 7 10 1012.1 1011.9 0.0
23/04:00pm 23.4 20.3 7.1 35 8.5 SW 13 22 7 12 1012.1 1011.9 0.0
23/03:30pm 23.4 19.8 6.7 34 8.6 WSW 15 24 8 13 1012.4 1012.2 0.0
23/03:00pm 23.3 19.4 7.0 35 8.5 SW 17 26 9 14 1012.3 1012.1 0.0
23/02:30pm 23.6 19.6 6.8 34 8.7 WSW 17 26 9 14 1012.6 1012.4 0.0
23/02:00pm 23.2 18.7 6.9 35 8.5 SW 20 28 11 15 1013.1 1012.8 0.0
23/01:30pm 22.8 18.9 7.0 36 8.2 WSW 17 24 9 13 1013.3 1013.0 0.0
23/01:00pm 22.7 19.4 8.0 39 7.8 SW 15 22 8 12 1013.8 1013.5 0.0
23/12:30pm 21.8 18.7 7.2 39 7.5 SW 13 22 7 12 1014.6 1014.3 0.0
23/12:00pm 21.2 18.1 7.4 41 7.1 SW 13 22 7 12 1015.2 1014.9 0.0
23/11:30am 21.7 18.7 7.9 41 7.2 SW 13 20 7 11 1015.8 1015.5 0.0
23/11:00am 20.6 17.6 7.9 44 6.6 WSW 13 19 7 10 1016.3 1016.0 0.0
23/10:30am 19.1 16.1 7.8 48 5.8 WSW 13 17 7 9 1016.6 1016.3 0.0
23/10:00am 17.5 14.5 7.8 53 4.9 SW 13 20 7 11 1016.9 1016.6 0.0
23/09:30am 15.9 12.5 7.7 58 4.1 SW 15 19 8 10 1017.0 1016.7 0.0
23/09:00am 14.2 10.7 7.0 62 3.5 SW 15 19 8 10 1017.0 1016.7 0.0
23/08:30am 12.7 9.1 6.7 67 2.9 SW 15 19 8 10 1017.1 1016.8 0.0
23/08:00am 11.9 8.6 6.6 70 2.5 WSW 13 17 7 9 1016.8 1016.5 0.0

Other Formats:

Comma delimited format used in spreadsheet applications
http://www.bom.gov.au/fwo/IDN60801/IDN60801.95695.axf

JavaScript Object Notation format (JSON) in row-major order
http://www.bom.gov.au/fwo/IDN60801/IDN60801.95695.json